sensor_id;sensor_type;location;lat;lon;timestamp;P1;durP1;ratioP1;P2;durP2;ratioP2
74293;SDS011;64044;59.904;10.738;2023-03-31T00:00:45;1.00;;;0.70;;
74293;SDS011;64044;59.904;10.738;2023-03-31T00:03:11;1.35;;;0.93;;
74293;SDS011;64044;59.904;10.738;2023-03-31T00:05:37;1.02;;;0.68;;
74293;SDS011;64044;59.904;10.738;2023-03-31T00:08:03;1.25;;;0.60;;
74293;SDS011;64044;59.904;10.738;2023-03-31T00:10:30;0.85;;;0.50;;
74293;SDS011;64044;59.904;10.738;2023-03-31T00:12:58;0.98;;;0.70;;
74293;SDS011;64044;59.904;10.738;2023-03-31T00:15:25;0.82;;;0.52;;
74293;SDS011;64044;59.904;10.738;2023-03-31T00:17:51;1.13;;;0.70;;
74293;SDS011;64044;59.904;10.738;2023-03-31T00:20:17;3.17;;;0.50;;
74293;SDS011;64044;59.904;10.738;2023-03-31T00:22:44;1.20;;;0.75;;
74293;SDS011;64044;59.904;10.738;2023-03-31T00:25:13;1.35;;;0.75;;
74293;SDS011;64044;59.904;10.738;2023-03-31T00:27:43;0.70;;;0.50;;
74293;SDS011;64044;59.904;10.738;2023-03-31T00:30:10;1.10;;;0.52;;
74293;SDS011;64044;59.904;10.738;2023-03-31T00:32:37;1.52;;;0.60;;
74293;SDS011;64044;59.904;10.738;2023-03-31T00:35:03;1.40;;;0.70;;
74293;SDS011;64044;59.904;10.738;2023-03-31T00:37:29;0.57;;;0.55;;
74293;SDS011;64044;59.904;10.738;2023-03-31T00:39:55;1.10;;;0.70;;
74293;SDS011;64044;59.904;10.738;2023-03-31T00:42:21;4.22;;;0.70;;
74293;SDS011;64044;59.904;10.738;2023-03-31T00:47:41;1.90;;;0.70;;
74293;SDS011;64044;59.904;10.738;2023-03-31T00:50:28;2.60;;;0.75;;
74293;SDS011;64044;59.904;10.738;2023-03-31T00:53:01;0.75;;;0.65;;
74293;SDS011;64044;59.904;10.738;2023-03-31T00:55:34;0.50;;;0.50;;
74293;SDS011;64044;59.904;10.738;2023-03-31T01:00:31;0.30;;;0.30;;
74293;SDS011;64044;59.904;10.738;2023-03-31T01:02:58;0.90;;;0.80;;
74293;SDS011;64044;59.904;10.738;2023-03-31T01:05:32;0.93;;;0.80;;
74293;SDS011;64044;59.904;10.738;2023-03-31T01:08:02;0.75;;;0.47;;
74293;SDS011;64044;59.904;10.738;2023-03-31T01:10:29;1.10;;;0.68;;
74293;SDS011;64044;59.904;10.738;2023-03-31T01:13:02;1.30;;;0.50;;
74293;SDS011;64044;59.904;10.738;2023-03-31T01:15:28;1.30;;;0.77;;
74293;SDS011;64044;59.904;10.738;2023-03-31T01:17:54;1.27;;;0.65;;
74293;SDS011;64044;59.904;10.738;2023-03-31T01:48:27;0.80;;;0.52;;
74293;SDS011;64044;59.904;10.738;2023-03-31T01:51:16;0.85;;;0.60;;
74293;SDS011;64044;59.904;10.738;2023-03-31T01:54:00;1.30;;;0.60;;
74293;SDS011;64044;59.904;10.738;2023-03-31T01:59:36;0.95;;;0.60;;
74293;SDS011;64044;59.904;10.738;2023-03-31T02:02:26;0.60;;;0.40;;
74293;SDS011;64044;59.904;10.738;2023-03-31T02:04:59;0.43;;;0.43;;
74293;SDS011;64044;59.904;10.738;2023-03-31T02:07:34;0.70;;;0.70;;
74293;SDS011;64044;59.904;10.738;2023-03-31T02:10:17;0.95;;;0.43;;
74293;SDS011;64044;59.904;10.738;2023-03-31T02:12:43;0.55;;;0.55;;
74293;SDS011;64044;59.904;10.738;2023-03-31T02:15:12;2.05;;;0.73;;
74293;SDS011;64044;59.904;10.738;2023-03-31T02:17:42;1.40;;;0.60;;
74293;SDS011;64044;59.904;10.738;2023-03-31T02:20:11;2.17;;;0.65;;
74293;SDS011;64044;59.904;10.738;2023-03-31T02:22:40;1.67;;;0.68;;
74293;SDS011;64044;59.904;10.738;2023-03-31T02:25:10;0.75;;;0.60;;
74293;SDS011;64044;59.904;10.738;2023-03-31T02:27:45;0.83;;;0.40;;
74293;SDS011;64044;59.904;10.738;2023-03-31T02:30:25;0.40;;;0.40;;
74293;SDS011;64044;59.904;10.738;2023-03-31T02:33:00;2.53;;;0.70;;
74293;SDS011;64044;59.904;10.738;2023-03-31T02:35:29;0.43;;;0.43;;
74293;SDS011;64044;59.904;10.738;2023-03-31T02:37:55;1.30;;;0.50;;
74293;SDS011;64044;59.904;10.738;2023-03-31T02:40:22;0.85;;;0.50;;
74293;SDS011;64044;59.904;10.738;2023-03-31T02:42:51;0.75;;;0.40;;
74293;SDS011;64044;59.904;10.738;2023-03-31T02:48:05;0.55;;;0.52;;
74293;SDS011;64044;59.904;10.738;2023-03-31T02:50:36;1.45;;;0.50;;
74293;SDS011;64044;59.904;10.738;2023-03-31T02:53:30;0.75;;;0.70;;
74293;SDS011;64044;59.904;10.738;2023-03-31T03:07:33;0.82;;;0.50;;
74293;SDS011;64044;59.904;10.738;2023-03-31T03:15:31;2.05;;;0.50;;
74293;SDS011;64044;59.904;10.738;2023-03-31T03:18:07;0.80;;;0.50;;
74293;SDS011;64044;59.904;10.738;2023-03-31T03:20:33;1.27;;;0.60;;
74293;SDS011;64044;59.904;10.738;2023-03-31T03:23:00;0.82;;;0.65;;
74293;SDS011;64044;59.904;10.738;2023-03-31T03:25:26;0.65;;;0.40;;
74293;SDS011;64044;59.904;10.738;2023-03-31T03:27:54;0.47;;;0.47;;
74293;SDS011;64044;59.904;10.738;2023-03-31T03:30:20;0.40;;;0.40;;
74293;SDS011;64044;59.904;10.738;2023-03-31T03:32:46;0.70;;;0.50;;
74293;SDS011;64044;59.904;10.738;2023-03-31T03:35:12;2.67;;;0.65;;
74293;SDS011;64044;59.904;10.738;2023-03-31T03:37:38;2.58;;;0.80;;
74293;SDS011;64044;59.904;10.738;2023-03-31T03:40:04;0.38;;;0.32;;
74293;SDS011;64044;59.904;10.738;2023-03-31T03:42:31;0.73;;;0.40;;
74293;SDS011;64044;59.904;10.738;2023-03-31T03:44:57;0.52;;;0.52;;
74293;SDS011;64044;59.904;10.738;2023-03-31T03:47:23;1.10;;;0.60;;
74293;SDS011;64044;59.904;10.738;2023-03-31T03:49:49;0.63;;;0.52;;
74293;SDS011;64044;59.904;10.738;2023-03-31T03:52:15;1.50;;;0.60;;
74293;SDS011;64044;59.904;10.738;2023-03-31T03:54:41;0.77;;;0.57;;
74293;SDS011;64044;59.904;10.738;2023-03-31T03:57:06;1.25;;;0.60;;
74293;SDS011;64044;59.904;10.738;2023-03-31T03:59:32;3.80;;;0.40;;
74293;SDS011;64044;59.904;10.738;2023-03-31T04:01:58;1.65;;;0.50;;
74293;SDS011;64044;59.904;10.738;2023-03-31T04:04:23;2.50;;;0.82;;
74293;SDS011;64044;59.904;10.738;2023-03-31T04:06:49;2.40;;;0.57;;
74293;SDS011;64044;59.904;10.738;2023-03-31T04:09:15;1.30;;;0.60;;
74293;SDS011;64044;59.904;10.738;2023-03-31T04:11:41;1.38;;;0.80;;
74293;SDS011;64044;59.904;10.738;2023-03-31T04:14:07;0.85;;;0.60;;
74293;SDS011;64044;59.904;10.738;2023-03-31T04:16:32;2.65;;;0.80;;
74293;SDS011;64044;59.904;10.738;2023-03-31T04:18:58;7.80;;;0.70;;
74293;SDS011;64044;59.904;10.738;2023-03-31T04:21:27;0.63;;;0.30;;
74293;SDS011;64044;59.904;10.738;2023-03-31T04:23:55;0.38;;;0.30;;
74293;SDS011;64044;59.904;10.738;2023-03-31T04:28:58;2.08;;;0.40;;
74293;SDS011;64044;59.904;10.738;2023-03-31T04:31:26;1.58;;;0.88;;
74293;SDS011;64044;59.904;10.738;2023-03-31T04:33:54;7.75;;;1.05;;
74293;SDS011;64044;59.904;10.738;2023-03-31T04:36:25;1.67;;;0.55;;
74293;SDS011;64044;59.904;10.738;2023-03-31T04:38:51;1.38;;;0.50;;
74293;SDS011;64044;59.904;10.738;2023-03-31T04:41:19;1.63;;;0.73;;
74293;SDS011;64044;59.904;10.738;2023-03-31T04:43:45;2.15;;;0.50;;
74293;SDS011;64044;59.904;10.738;2023-03-31T04:46:11;1.23;;;0.30;;
74293;SDS011;64044;59.904;10.738;2023-03-31T04:48:37;0.88;;;0.80;;
74293;SDS011;64044;59.904;10.738;2023-03-31T04:51:03;0.70;;;0.43;;
74293;SDS011;64044;59.904;10.738;2023-03-31T04:53:29;0.45;;;0.30;;
74293;SDS011;64044;59.904;10.738;2023-03-31T04:55:55;2.00;;;0.60;;
74293;SDS011;64044;59.904;10.738;2023-03-31T04:58:20;0.52;;;0.43;;
74293;SDS011;64044;59.904;10.738;2023-03-31T05:00:46;3.03;;;0.65;;
74293;SDS011;64044;59.904;10.738;2023-03-31T05:03:12;1.95;;;0.60;;
74293;SDS011;64044;59.904;10.738;2023-03-31T05:05:38;0.63;;;0.40;;
74293;SDS011;64044;59.904;10.738;2023-03-31T05:08:03;1.13;;;0.63;;
74293;SDS011;64044;59.904;10.738;2023-03-31T05:10:29;1.15;;;0.80;;
74293;SDS011;64044;59.904;10.738;2023-03-31T05:12:55;1.20;;;0.45;;
74293;SDS011;64044;59.904;10.738;2023-03-31T05:15:22;0.85;;;0.50;;
74293;SDS011;64044;59.904;10.738;2023-03-31T05:17:50;2.67;;;0.73;;
74293;SDS011;64044;59.904;10.738;2023-03-31T05:20:17;1.33;;;0.65;;
74293;SDS011;64044;59.904;10.738;2023-03-31T05:22:43;0.88;;;0.70;;
74293;SDS011;64044;59.904;10.738;2023-03-31T05:25:10;0.80;;;0.68;;
74293;SDS011;64044;59.904;10.738;2023-03-31T05:27:42;4.32;;;0.50;;
74293;SDS011;64044;59.904;10.738;2023-03-31T05:30:11;1.05;;;0.40;;
74293;SDS011;64044;59.904;10.738;2023-03-31T05:32:38;2.25;;;0.63;;
74293;SDS011;64044;59.904;10.738;2023-03-31T05:35:04;3.70;;;0.70;;
74293;SDS011;64044;59.904;10.738;2023-03-31T05:37:30;0.93;;;0.50;;
74293;SDS011;64044;59.904;10.738;2023-03-31T05:39:55;1.08;;;0.50;;
74293;SDS011;64044;59.904;10.738;2023-03-31T05:42:21;1.60;;;0.82;;
74293;SDS011;64044;59.904;10.738;2023-03-31T05:44:47;1.08;;;0.47;;
74293;SDS011;64044;59.904;10.738;2023-03-31T05:47:13;2.08;;;0.60;;
74293;SDS011;64044;59.904;10.738;2023-03-31T05:49:39;1.23;;;0.50;;
74293;SDS011;64044;59.904;10.738;2023-03-31T05:52:06;2.35;;;0.50;;
74293;SDS011;64044;59.904;10.738;2023-03-31T05:54:34;7.55;;;1.13;;
74293;SDS011;64044;59.904;10.738;2023-03-31T05:57:00;0.63;;;0.43;;
74293;SDS011;64044;59.904;10.738;2023-03-31T05:59:26;2.40;;;0.70;;
74293;SDS011;64044;59.904;10.738;2023-03-31T06:01:51;6.70;;;0.85;;
74293;SDS011;64044;59.904;10.738;2023-03-31T06:04:17;3.13;;;1.17;;
74293;SDS011;64044;59.904;10.738;2023-03-31T06:06:43;1.85;;;0.60;;
74293;SDS011;64044;59.904;10.738;2023-03-31T06:09:10;2.65;;;0.57;;
74293;SDS011;64044;59.904;10.738;2023-03-31T06:11:36;2.60;;;0.55;;
74293;SDS011;64044;59.904;10.738;2023-03-31T06:14:02;3.63;;;0.63;;
74293;SDS011;64044;59.904;10.738;2023-03-31T06:16:28;5.45;;;0.60;;
74293;SDS011;64044;59.904;10.738;2023-03-31T06:18:55;1.63;;;0.50;;
74293;SDS011;64044;59.904;10.738;2023-03-31T06:21:21;6.70;;;0.88;;
74293;SDS011;64044;59.904;10.738;2023-03-31T06:23:47;2.67;;;0.80;;
74293;SDS011;64044;59.904;10.738;2023-03-31T06:26:14;0.80;;;0.55;;
74293;SDS011;64044;59.904;10.738;2023-03-31T06:28:41;4.97;;;0.60;;
74293;SDS011;64044;59.904;10.738;2023-03-31T06:31:09;4.95;;;0.50;;
74293;SDS011;64044;59.904;10.738;2023-03-31T06:33:36;6.45;;;0.68;;
74293;SDS011;64044;59.904;10.738;2023-03-31T06:36:03;3.58;;;0.80;;
74293;SDS011;64044;59.904;10.738;2023-03-31T06:38:31;5.38;;;0.80;;
74293;SDS011;64044;59.904;10.738;2023-03-31T06:40:57;4.07;;;1.13;;
74293;SDS011;64044;59.904;10.738;2023-03-31T06:43:23;2.58;;;0.50;;
74293;SDS011;64044;59.904;10.738;2023-03-31T06:45:49;2.85;;;0.90;;
74293;SDS011;64044;59.904;10.738;2023-03-31T06:48:17;2.28;;;0.80;;
74293;SDS011;64044;59.904;10.738;2023-03-31T06:50:43;6.13;;;0.80;;
74293;SDS011;64044;59.904;10.738;2023-03-31T06:53:09;1.85;;;0.70;;
74293;SDS011;64044;59.904;10.738;2023-03-31T06:55:35;2.40;;;0.75;;
74293;SDS011;64044;59.904;10.738;2023-03-31T06:58:01;8.52;;;0.70;;
74293;SDS011;64044;59.904;10.738;2023-03-31T07:00:28;5.15;;;0.77;;
74293;SDS011;64044;59.904;10.738;2023-03-31T07:02:53;5.95;;;0.75;;
74293;SDS011;64044;59.904;10.738;2023-03-31T07:05:20;2.10;;;0.90;;
74293;SDS011;64044;59.904;10.738;2023-03-31T07:07:56;2.08;;;0.57;;
74293;SDS011;64044;59.904;10.738;2023-03-31T07:10:24;3.22;;;0.80;;
74293;SDS011;64044;59.904;10.738;2023-03-31T07:12:51;2.05;;;0.77;;
74293;SDS011;64044;59.904;10.738;2023-03-31T07:15:17;1.52;;;0.70;;
74293;SDS011;64044;59.904;10.738;2023-03-31T07:17:44;5.50;;;1.33;;
74293;SDS011;64044;59.904;10.738;2023-03-31T07:20:10;2.90;;;0.82;;
74293;SDS011;64044;59.904;10.738;2023-03-31T07:22:39;4.07;;;1.17;;
74293;SDS011;64044;59.904;10.738;2023-03-31T07:25:06;3.75;;;1.00;;
74293;SDS011;64044;59.904;10.738;2023-03-31T07:27:33;1.63;;;0.70;;
74293;SDS011;64044;59.904;10.738;2023-03-31T07:29:59;3.58;;;0.70;;
74293;SDS011;64044;59.904;10.738;2023-03-31T07:32:25;2.13;;;1.13;;
74293;SDS011;64044;59.904;10.738;2023-03-31T07:34:50;1.48;;;1.20;;
74293;SDS011;64044;59.904;10.738;2023-03-31T07:37:16;2.30;;;1.17;;
74293;SDS011;64044;59.904;10.738;2023-03-31T07:39:42;0.80;;;0.65;;
74293;SDS011;64044;59.904;10.738;2023-03-31T07:42:07;1.98;;;1.00;;
74293;SDS011;64044;59.904;10.738;2023-03-31T07:44:34;1.27;;;0.70;;
74293;SDS011;64044;59.904;10.738;2023-03-31T07:47:00;1.20;;;0.85;;
74293;SDS011;64044;59.904;10.738;2023-03-31T07:49:29;4.18;;;0.80;;
74293;SDS011;64044;59.904;10.738;2023-03-31T07:51:55;9.00;;;0.95;;
74293;SDS011;64044;59.904;10.738;2023-03-31T07:54:21;4.35;;;0.60;;
74293;SDS011;64044;59.904;10.738;2023-03-31T07:56:46;1.25;;;0.63;;
74293;SDS011;64044;59.904;10.738;2023-03-31T07:59:12;2.15;;;0.77;;
74293;SDS011;64044;59.904;10.738;2023-03-31T08:01:38;2.28;;;0.77;;
74293;SDS011;64044;59.904;10.738;2023-03-31T08:04:04;4.82;;;0.70;;
74293;SDS011;64044;59.904;10.738;2023-03-31T08:06:30;1.25;;;0.70;;
74293;SDS011;64044;59.904;10.738;2023-03-31T08:08:56;4.95;;;1.45;;
74293;SDS011;64044;59.904;10.738;2023-03-31T08:11:22;4.10;;;0.88;;
74293;SDS011;64044;59.904;10.738;2023-03-31T08:13:50;3.65;;;0.68;;
74293;SDS011;64044;59.904;10.738;2023-03-31T08:16:16;1.10;;;0.63;;
74293;SDS011;64044;59.904;10.738;2023-03-31T08:18:42;4.15;;;0.77;;
74293;SDS011;64044;59.904;10.738;2023-03-31T08:21:08;5.05;;;0.80;;
74293;SDS011;64044;59.904;10.738;2023-03-31T08:23:34;2.35;;;1.00;;
74293;SDS011;64044;59.904;10.738;2023-03-31T08:26:14;4.72;;;1.15;;
74293;SDS011;64044;59.904;10.738;2023-03-31T08:28:46;2.85;;;0.80;;
74293;SDS011;64044;59.904;10.738;2023-03-31T08:31:15;3.30;;;1.00;;
74293;SDS011;64044;59.904;10.738;2023-03-31T08:33:43;2.53;;;0.70;;
74293;SDS011;64044;59.904;10.738;2023-03-31T08:36:09;4.13;;;0.80;;
74293;SDS011;64044;59.904;10.738;2023-03-31T08:38:36;2.55;;;0.73;;
74293;SDS011;64044;59.904;10.738;2023-03-31T08:41:04;2.35;;;0.60;;
74293;SDS011;64044;59.904;10.738;2023-03-31T08:43:33;2.65;;;0.57;;
74293;SDS011;64044;59.904;10.738;2023-03-31T08:46:04;2.88;;;0.90;;
74293;SDS011;64044;59.904;10.738;2023-03-31T08:48:39;0.70;;;0.55;;
74293;SDS011;64044;59.904;10.738;2023-03-31T08:51:14;3.47;;;1.02;;
74293;SDS011;64044;59.904;10.738;2023-03-31T08:54:06;1.25;;;0.80;;
74293;SDS011;64044;59.904;10.738;2023-03-31T08:56:36;4.00;;;0.90;;
74293;SDS011;64044;59.904;10.738;2023-03-31T08:59:06;7.50;;;0.90;;
74293;SDS011;64044;59.904;10.738;2023-03-31T09:02:39;3.13;;;0.80;;
74293;SDS011;64044;59.904;10.738;2023-03-31T09:18:24;2.80;;;0.95;;
74293;SDS011;64044;59.904;10.738;2023-03-31T09:23:44;1.65;;;0.80;;
74293;SDS011;64044;59.904;10.738;2023-03-31T09:29:21;4.30;;;0.70;;
74293;SDS011;64044;59.904;10.738;2023-03-31T09:31:53;2.28;;;0.85;;
74293;SDS011;64044;59.904;10.738;2023-03-31T09:34:27;2.20;;;0.90;;
74293;SDS011;64044;59.904;10.738;2023-03-31T09:39:21;1.85;;;0.60;;
74293;SDS011;64044;59.904;10.738;2023-03-31T09:41:48;1.02;;;0.43;;
74293;SDS011;64044;59.904;10.738;2023-03-31T09:47:02;1.67;;;0.80;;
74293;SDS011;64044;59.904;10.738;2023-03-31T09:49:32;3.17;;;0.80;;
74293;SDS011;64044;59.904;10.738;2023-03-31T09:54:55;5.32;;;2.00;;
74293;SDS011;64044;59.904;10.738;2023-03-31T09:57:27;4.43;;;1.05;;
74293;SDS011;64044;59.904;10.738;2023-03-31T10:00:02;1.80;;;0.77;;
74293;SDS011;64044;59.904;10.738;2023-03-31T10:02:51;1.70;;;0.80;;
74293;SDS011;64044;59.904;10.738;2023-03-31T10:05:26;2.05;;;0.60;;
74293;SDS011;64044;59.904;10.738;2023-03-31T10:08:11;1.25;;;0.73;;
74293;SDS011;64044;59.904;10.738;2023-03-31T10:10:54;2.80;;;0.80;;
74293;SDS011;64044;59.904;10.738;2023-03-31T10:13:22;0.95;;;0.52;;
74293;SDS011;64044;59.904;10.738;2023-03-31T10:15:51;2.17;;;0.65;;
74293;SDS011;64044;59.904;10.738;2023-03-31T10:18:32;3.28;;;0.70;;
74293;SDS011;64044;59.904;10.738;2023-03-31T10:21:00;2.15;;;0.98;;
74293;SDS011;64044;59.904;10.738;2023-03-31T10:23:31;10.98;;;1.40;;
74293;SDS011;64044;59.904;10.738;2023-03-31T10:28:25;3.90;;;0.65;;
74293;SDS011;64044;59.904;10.738;2023-03-31T10:30:55;3.50;;;0.60;;
74293;SDS011;64044;59.904;10.738;2023-03-31T10:33:25;0.77;;;0.57;;
74293;SDS011;64044;59.904;10.738;2023-03-31T10:35:54;7.05;;;0.85;;
74293;SDS011;64044;59.904;10.738;2023-03-31T10:38:26;1.55;;;0.75;;
74293;SDS011;64044;59.904;10.738;2023-03-31T10:40:56;1.27;;;0.70;;
74293;SDS011;64044;59.904;10.738;2023-03-31T10:43:28;2.88;;;0.68;;
74293;SDS011;64044;59.904;10.738;2023-03-31T10:46:01;0.88;;;0.45;;
74293;SDS011;64044;59.904;10.738;2023-03-31T10:51:17;2.05;;;0.65;;
74293;SDS011;64044;59.904;10.738;2023-03-31T10:53:44;2.88;;;0.70;;
74293;SDS011;64044;59.904;10.738;2023-03-31T10:56:38;0.85;;;0.60;;
74293;SDS011;64044;59.904;10.738;2023-03-31T10:59:44;1.90;;;0.80;;
74293;SDS011;64044;59.904;10.738;2023-03-31T11:02:29;1.38;;;0.57;;
74293;SDS011;64044;59.904;10.738;2023-03-31T11:42:39;1.27;;;0.70;;
74293;SDS011;64044;59.904;10.738;2023-03-31T11:45:20;1.63;;;0.70;;
74293;SDS011;64044;59.904;10.738;2023-03-31T11:47:53;6.15;;;0.60;;
74293;SDS011;64044;59.904;10.738;2023-03-31T11:50:24;1.25;;;0.70;;
74293;SDS011;64044;59.904;10.738;2023-03-31T11:52:59;3.30;;;1.00;;
74293;SDS011;64044;59.904;10.738;2023-03-31T11:55:29;2.55;;;0.70;;
74293;SDS011;64044;59.904;10.738;2023-03-31T12:05:49;2.15;;;0.98;;
74293;SDS011;64044;59.904;10.738;2023-03-31T12:11:10;0.52;;;0.40;;
74293;SDS011;64044;59.904;10.738;2023-03-31T12:16:22;5.47;;;0.80;;
74293;SDS011;64044;59.904;10.738;2023-03-31T12:21:43;3.78;;;0.80;;
74293;SDS011;64044;59.904;10.738;2023-03-31T12:24:14;2.75;;;0.55;;
74293;SDS011;64044;59.904;10.738;2023-03-31T12:26:43;1.55;;;0.60;;
74293;SDS011;64044;59.904;10.738;2023-03-31T12:32:00;2.67;;;0.80;;
74293;SDS011;64044;59.904;10.738;2023-03-31T12:34:34;3.53;;;0.80;;
74293;SDS011;64044;59.904;10.738;2023-03-31T12:40:08;1.15;;;0.70;;
74293;SDS011;64044;59.904;10.738;2023-03-31T12:48:40;1.08;;;0.60;;
74293;SDS011;64044;59.904;10.738;2023-03-31T12:56:15;1.73;;;0.60;;
74293;SDS011;64044;59.904;10.738;2023-03-31T12:58:44;3.53;;;0.60;;
74293;SDS011;64044;59.904;10.738;2023-03-31T13:01:11;2.22;;;0.80;;
74293;SDS011;64044;59.904;10.738;2023-03-31T13:03:44;0.60;;;0.47;;
74293;SDS011;64044;59.904;10.738;2023-03-31T13:11:33;1.92;;;0.55;;
74293;SDS011;64044;59.904;10.738;2023-03-31T13:16:48;0.88;;;0.60;;
74293;SDS011;64044;59.904;10.738;2023-03-31T13:27:53;0.93;;;0.73;;
74293;SDS011;64044;59.904;10.738;2023-03-31T13:33:04;0.85;;;0.85;;
74293;SDS011;64044;59.904;10.738;2023-03-31T13:35:41;1.17;;;0.80;;
74293;SDS011;64044;59.904;10.738;2023-03-31T13:38:21;1.35;;;0.63;;
74293;SDS011;64044;59.904;10.738;2023-03-31T13:43:43;2.33;;;0.70;;
74293;SDS011;64044;59.904;10.738;2023-03-31T13:58:33;0.95;;;0.85;;
74293;SDS011;64044;59.904;10.738;2023-03-31T14:01:15;2.58;;;0.77;;
74293;SDS011;64044;59.904;10.738;2023-03-31T14:04:15;1.45;;;0.63;;
74293;SDS011;64044;59.904;10.738;2023-03-31T14:07:12;2.65;;;0.90;;
74293;SDS011;64044;59.904;10.738;2023-03-31T14:09:44;1.40;;;0.70;;
74293;SDS011;64044;59.904;10.738;2023-03-31T14:15:00;0.65;;;0.50;;
74293;SDS011;64044;59.904;10.738;2023-03-31T14:17:29;5.45;;;0.82;;
74293;SDS011;64044;59.904;10.738;2023-03-31T14:23:09;1.00;;;0.70;;
74293;SDS011;64044;59.904;10.738;2023-03-31T14:33:50;2.08;;;0.70;;
74293;SDS011;64044;59.904;10.738;2023-03-31T14:39:22;2.78;;;0.60;;
74293;SDS011;64044;59.904;10.738;2023-03-31T14:41:52;3.10;;;0.60;;
74293;SDS011;64044;59.904;10.738;2023-03-31T14:44:19;2.22;;;1.17;;
74293;SDS011;64044;59.904;10.738;2023-03-31T14:46:46;1.88;;;1.10;;
74293;SDS011;64044;59.904;10.738;2023-03-31T14:51:44;3.95;;;1.30;;
74293;SDS011;64044;59.904;10.738;2023-03-31T14:54:17;1.38;;;0.70;;
74293;SDS011;64044;59.904;10.738;2023-03-31T14:56:48;2.67;;;0.85;;
74293;SDS011;64044;59.904;10.738;2023-03-31T14:59:22;0.88;;;0.85;;
74293;SDS011;64044;59.904;10.738;2023-03-31T15:01:55;0.70;;;0.52;;
74293;SDS011;64044;59.904;10.738;2023-03-31T15:04:24;3.50;;;0.45;;
74293;SDS011;64044;59.904;10.738;2023-03-31T15:06:52;1.15;;;0.63;;
74293;SDS011;64044;59.904;10.738;2023-03-31T15:09:22;0.98;;;0.70;;
74293;SDS011;64044;59.904;10.738;2023-03-31T15:11:58;1.15;;;0.57;;
74293;SDS011;64044;59.904;10.738;2023-03-31T15:14:30;1.85;;;0.80;;
74293;SDS011;64044;59.904;10.738;2023-03-31T15:17:01;4.03;;;0.75;;
74293;SDS011;64044;59.904;10.738;2023-03-31T15:19:34;0.80;;;0.80;;
74293;SDS011;64044;59.904;10.738;2023-03-31T15:24:45;1.35;;;0.63;;
74293;SDS011;64044;59.904;10.738;2023-03-31T15:27:16;0.77;;;0.60;;
74293;SDS011;64044;59.904;10.738;2023-03-31T15:29:50;2.22;;;0.80;;
74293;SDS011;64044;59.904;10.738;2023-03-31T15:34:49;3.40;;;0.95;;
74293;SDS011;64044;59.904;10.738;2023-03-31T15:37:15;1.02;;;0.75;;
74293;SDS011;64044;59.904;10.738;2023-03-31T15:39:51;1.65;;;0.65;;
74293;SDS011;64044;59.904;10.738;2023-03-31T15:42:21;2.05;;;0.77;;
74293;SDS011;64044;59.904;10.738;2023-03-31T15:47:51;1.25;;;1.15;;
74293;SDS011;64044;59.904;10.738;2023-03-31T15:50:19;1.00;;;0.90;;
74293;SDS011;64044;59.904;10.738;2023-03-31T15:52:52;1.05;;;0.82;;
74293;SDS011;64044;59.904;10.738;2023-03-31T15:57:47;1.52;;;0.70;;
74293;SDS011;64044;59.904;10.738;2023-03-31T16:01:00;0.98;;;0.95;;
74293;SDS011;64044;59.904;10.738;2023-03-31T16:03:31;1.92;;;0.98;;
74293;SDS011;64044;59.904;10.738;2023-03-31T16:06:04;4.15;;;1.40;;
74293;SDS011;64044;59.904;10.738;2023-03-31T16:08:47;2.15;;;1.00;;
74293;SDS011;64044;59.904;10.738;2023-03-31T16:11:32;1.33;;;0.90;;
74293;SDS011;64044;59.904;10.738;2023-03-31T16:14:06;1.83;;;1.00;;
74293;SDS011;64044;59.904;10.738;2023-03-31T16:17:04;1.98;;;1.30;;
74293;SDS011;64044;59.904;10.738;2023-03-31T16:19:44;1.40;;;1.00;;
74293;SDS011;64044;59.904;10.738;2023-03-31T16:22:18;1.73;;;1.00;;
74293;SDS011;64044;59.904;10.738;2023-03-31T16:24:46;1.80;;;1.10;;
74293;SDS011;64044;59.904;10.738;2023-03-31T16:27:13;4.05;;;1.55;;
74293;SDS011;64044;59.904;10.738;2023-03-31T16:29:39;1.65;;;1.05;;
74293;SDS011;64044;59.904;10.738;2023-03-31T16:32:05;2.88;;;1.17;;
74293;SDS011;64044;59.904;10.738;2023-03-31T16:34:32;1.92;;;0.80;;
74293;SDS011;64044;59.904;10.738;2023-03-31T16:36:57;6.40;;;0.90;;
74293;SDS011;64044;59.904;10.738;2023-03-31T16:39:23;1.20;;;0.93;;
74293;SDS011;64044;59.904;10.738;2023-03-31T16:41:49;1.20;;;1.00;;
74293;SDS011;64044;59.904;10.738;2023-03-31T16:44:15;1.88;;;0.82;;
74293;SDS011;64044;59.904;10.738;2023-03-31T16:46:40;3.33;;;0.73;;
74293;SDS011;64044;59.904;10.738;2023-03-31T16:49:06;1.52;;;1.00;;
74293;SDS011;64044;59.904;10.738;2023-03-31T16:51:32;1.52;;;0.95;;
74293;SDS011;64044;59.904;10.738;2023-03-31T16:53:57;1.88;;;0.88;;
74293;SDS011;64044;59.904;10.738;2023-03-31T16:56:23;1.95;;;0.80;;
74293;SDS011;64044;59.904;10.738;2023-03-31T16:58:50;1.38;;;0.70;;
74293;SDS011;64044;59.904;10.738;2023-03-31T17:01:17;2.45;;;0.73;;
74293;SDS011;64044;59.904;10.738;2023-03-31T17:03:43;8.32;;;1.30;;
74293;SDS011;64044;59.904;10.738;2023-03-31T17:06:10;1.75;;;1.02;;
74293;SDS011;64044;59.904;10.738;2023-03-31T17:08:36;1.50;;;0.93;;
74293;SDS011;64044;59.904;10.738;2023-03-31T17:11:05;2.42;;;1.02;;
74293;SDS011;64044;59.904;10.738;2023-03-31T17:13:38;1.98;;;1.10;;
74293;SDS011;64044;59.904;10.738;2023-03-31T17:16:05;2.20;;;1.20;;
74293;SDS011;64044;59.904;10.738;2023-03-31T17:18:32;1.27;;;0.90;;
74293;SDS011;64044;59.904;10.738;2023-03-31T17:21:05;1.10;;;1.00;;
74293;SDS011;64044;59.904;10.738;2023-03-31T17:23:33;2.78;;;1.27;;
74293;SDS011;64044;59.904;10.738;2023-03-31T17:26:00;2.28;;;1.35;;
74293;SDS011;64044;59.904;10.738;2023-03-31T17:28:26;1.60;;;0.85;;
74293;SDS011;64044;59.904;10.738;2023-03-31T17:30:52;2.58;;;1.27;;
74293;SDS011;64044;59.904;10.738;2023-03-31T17:33:19;2.28;;;1.10;;
74293;SDS011;64044;59.904;10.738;2023-03-31T17:35:45;3.33;;;1.35;;
74293;SDS011;64044;59.904;10.738;2023-03-31T17:38:10;1.52;;;0.80;;
74293;SDS011;64044;59.904;10.738;2023-03-31T17:40:38;1.13;;;0.93;;
74293;SDS011;64044;59.904;10.738;2023-03-31T17:43:04;5.35;;;1.30;;
74293;SDS011;64044;59.904;10.738;2023-03-31T17:45:30;2.92;;;1.33;;
74293;SDS011;64044;59.904;10.738;2023-03-31T17:47:57;4.40;;;1.52;;
74293;SDS011;64044;59.904;10.738;2023-03-31T17:50:24;4.80;;;1.60;;
74293;SDS011;64044;59.904;10.738;2023-03-31T17:52:51;3.53;;;1.48;;
74293;SDS011;64044;59.904;10.738;2023-03-31T17:55:17;2.63;;;1.52;;
74293;SDS011;64044;59.904;10.738;2023-03-31T17:57:43;2.15;;;1.58;;
74293;SDS011;64044;59.904;10.738;2023-03-31T18:00:10;3.30;;;1.60;;
74293;SDS011;64044;59.904;10.738;2023-03-31T18:02:39;3.05;;;1.40;;
74293;SDS011;64044;59.904;10.738;2023-03-31T18:05:06;5.78;;;1.60;;
74293;SDS011;64044;59.904;10.738;2023-03-31T18:07:32;3.00;;;1.85;;
74293;SDS011;64044;59.904;10.738;2023-03-31T18:09:58;8.82;;;1.98;;
74293;SDS011;64044;59.904;10.738;2023-03-31T18:12:25;3.28;;;1.70;;
74293;SDS011;64044;59.904;10.738;2023-03-31T18:14:53;3.90;;;2.53;;
74293;SDS011;64044;59.904;10.738;2023-03-31T18:17:19;6.53;;;2.10;;
74293;SDS011;64044;59.904;10.738;2023-03-31T18:19:45;5.30;;;2.38;;
74293;SDS011;64044;59.904;10.738;2023-03-31T18:22:11;5.28;;;2.20;;
74293;SDS011;64044;59.904;10.738;2023-03-31T18:24:37;4.93;;;2.58;;
74293;SDS011;64044;59.904;10.738;2023-03-31T18:27:04;4.88;;;2.53;;
74293;SDS011;64044;59.904;10.738;2023-03-31T18:29:31;5.65;;;2.60;;
74293;SDS011;64044;59.904;10.738;2023-03-31T18:31:57;4.68;;;2.20;;
74293;SDS011;64044;59.904;10.738;2023-03-31T18:34:23;3.05;;;1.88;;